This is the latest recevied weather packets stored in our database for station/object N2PPN. If no packets are shown the sender has not sent any weather packets the latest 10 day(s).
| Time | Temp. | Humidity | Pressure | Rain* | Wind** | Luminosity | Snow |
|---|---|---|---|---|---|---|---|
| 1777304119 | 16.67° C | 43% | 1027.6 hPa | 0 mm | - | 685 W/m² | - |
| 1777303815 | 16.67° C | 44% | 1027.6 hPa | 0 mm | - | 678 W/m² | - |
| 1777303513 | 16.67° C | 44% | 1027.6 hPa | 0 mm | - | 672 W/m² | - |
| 1777303210 | 16.67° C | 44% | 1027.5 hPa | 0 mm | - | 666 W/m² | - |
| 1777302909 | 17.22° C | 43% | 1027.5 hPa | 0 mm | - | 659 W/m² | - |
| 1777302604 | 17.22° C | 44% | 1027.5 hPa | 0 mm | - | 651 W/m² | - |
| 1777302303 | 17.22° C | 44% | 1027.5 hPa | 0 mm | - | 644 W/m² | - |
| 1777302000 | 17.22° C | 46% | 1027.4 hPa | 0 mm | - | 634 W/m² | - |
| 1777301699 | 17.22° C | 46% | 1027.6 hPa | 0 mm | - | 629 W/m² | - |
| 1777301395 | 16.11° C | 47% | 1027.3 hPa | 0 mm | - | 620 W/m² | - |
| 1777301091 | 16.67° C | 45% | 1027.5 hPa | 0 mm | - | 609 W/m² | - |
| 1777300789 | 16.11° C | 46% | 1027.3 hPa | 0 mm | - | 600 W/m² | - |
| 1777300487 | 16.11° C | 46% | 1027.2 hPa | 0 mm | - | 590 W/m² | - |
| 1777300184 | 15.56° C | 47% | 1027.2 hPa | 0 mm | - | 580 W/m² | - |
| 1777299880 | 16.11° C | 47% | 1027.3 hPa | 0 mm | - | 570 W/m² | - |
| 1777299578 | 16.11° C | 47% | 1027.3 hPa | 0 mm | - | 559 W/m² | - |
| 1777299276 | 16.11° C | 47% | 1027.1 hPa | 0 mm | - | 547 W/m² | - |
| 1777298972 | 15.56° C | 51% | 1027.4 hPa | 0 mm | - | 535 W/m² | - |
| 1777298670 | 16.11° C | 50% | 1027.1 hPa | 0 mm | - | 524 W/m² | - |
| 1777298366 | 16.11° C | 49% | 1027.2 hPa | 0 mm | - | 519 W/m² | - |
| 1777298062 | 15.56° C | 52% | 1027 hPa | 0 mm | - | 505 W/m² | - |
| 1777297762 | 15.56° C | 53% | 1026.9 hPa | 0 mm | - | 492 W/m² | - |
| 1777297461 | 15.56° C | 53% | 1027 hPa | 0 mm | - | 479 W/m² | - |
| 1777297157 | 15° C | 57% | 1026.8 hPa | 0 mm | - | 465 W/m² | - |
| 1777296854 | 15° C | 58% | 1026.7 hPa | 0 mm | - | 451 W/m² | - |
* Rain latest hour (hover to see other rain measurements)
** Current wind speed in m/s (hover to see current wind gust speed)